Time;durP1;ratioP1;P1;durP2;ratioP2;P2;SDS_P1;SDS_P2;PMS_P1;PMS_P2;Temp;Humidity;BMP_temperature;BMP_pressure;BME280_temperature;BME280_humidity;BME280_pressure;Samples;Min_cycle;Max_cycle;Signal;HPM_P1;HPM_P2
2022/08/05 00:01:16;;;;;;;3.30;2.35;;;24.40;53.70;;;;;;5039300;28;20030;-59
2022/08/05 00:03:42;;;;;;;2.63;1.90;;;24.40;54.80;;;;;;5040467;28;20150;-58
2022/08/05 00:06:09;;;;;;;2.60;2.22;;;24.40;54.30;;;;;;5042841;28;20029;-59
2022/08/05 00:08:36;;;;;;;2.15;2.05;;;24.30;54.30;;;;;;5049085;28;20032;-60
2022/08/05 00:11:08;;;;;;;6.80;2.33;;;24.30;54.40;;;;;;5047225;28;20052;-58
2022/08/05 00:13:35;;;;;;;5.68;2.20;;;24.20;54.70;;;;;;5035074;28;20060;-58
2022/08/05 00:16:01;;;;;;;3.58;2.22;;;24.20;54.90;;;;;;5037539;28;20466;-59
2022/08/05 00:18:27;;;;;;;3.55;2.47;;;24.10;54.90;;;;;;5045279;28;20097;-60
2022/08/05 00:20:54;;;;;;;3.75;2.05;;;24.10;55.00;;;;;;5045694;28;20036;-60
2022/08/05 00:23:21;;;;;;;3.03;2.28;;;24.10;55.10;;;;;;5045349;28;20033;-60
2022/08/05 00:25:47;;;;;;;6.97;2.20;;;24.00;55.20;;;;;;5050943;28;20104;-60
2022/08/05 00:28:13;;;;;;;3.22;2.25;;;24.00;55.30;;;;;;5033041;28;20057;-59
2022/08/05 00:30:39;;;;;;;2.45;2.25;;;24.00;55.30;;;;;;5053909;28;20059;-60
2022/08/05 00:33:04;;;;;;;5.78;2.33;;;23.90;55.40;;;;;;5046071;28;20022;-60
2022/08/05 00:35:30;;;;;;;4.95;2.10;;;23.90;55.50;;;;;;5044712;28;20373;-59
2022/08/05 00:37:56;;;;;;;4.57;2.22;;;23.90;55.80;;;;;;5048325;28;20048;-59
2022/08/05 00:40:25;;;;;;;7.60;2.25;;;23.90;55.80;;;;;;5029972;28;20045;-60
2022/08/05 00:42:51;;;;;;;3.28;2.22;;;23.90;55.70;;;;;;5053545;28;20021;-58
2022/08/05 00:45:16;;;;;;;2.40;1.98;;;23.80;55.60;;;;;;5039677;28;20033;-59
2022/08/05 00:47:42;;;;;;;3.40;2.47;;;23.80;55.70;;;;;;5045766;28;20091;-60
2022/08/05 00:50:08;;;;;;;3.28;2.33;;;23.70;55.70;;;;;;5061935;28;20040;-59
2022/08/05 00:52:34;;;;;;;5.05;2.17;;;23.70;55.90;;;;;;5038486;28;20059;-59
2022/08/05 00:55:01;;;;;;;3.17;2.30;;;23.70;56.20;;;;;;5062767;28;20040;-59
2022/08/05 00:57:26;;;;;;;2.33;2.10;;;23.60;56.20;;;;;;5037293;28;20078;-61
2022/08/05 00:59:52;;;;;;;4.05;2.50;;;23.60;56.20;;;;;;5029041;28;20076;-60
2022/08/05 01:02:18;;;;;;;4.85;2.35;;;23.60;56.20;;;;;;5043336;28;20060;-59
2022/08/05 01:04:44;;;;;;;7.78;2.63;;;23.50;56.10;;;;;;5050137;28;20025;-59
2022/08/05 01:07:09;;;;;;;4.78;2.42;;;23.50;56.20;;;;;;5045326;28;20036;-60
2022/08/05 01:09:35;;;;;;;2.55;2.35;;;23.50;56.20;;;;;;5034124;28;20038;-59
2022/08/05 01:12:09;;;;;;;2.33;2.00;;;23.40;56.30;;;;;;5029501;28;20077;-59
2022/08/05 01:15:00;;;;;;;2.95;2.40;;;23.40;56.80;;;;;;5035037;28;20034;-61
2022/08/05 01:17:31;;;;;;;2.95;2.45;;;23.40;56.80;;;;;;5030514;28;20048;-58
2022/08/05 01:19:59;;;;;;;3.40;2.63;;;23.40;57.60;;;;;;5040859;28;20025;-60
2022/08/05 01:22:51;;;;;;;2.95;2.53;;;23.40;57.10;;;;;;5036880;28;20101;-60
2022/08/05 01:25:20;;;;;;;3.88;2.58;;;23.40;57.60;;;;;;5038577;28;20028;-59
2022/08/05 01:28:10;;;;;;;6.90;2.80;;;23.40;56.90;;;;;;5033631;28;20043;-60
2022/08/05 01:30:38;;;;;;;3.92;2.15;;;23.30;57.50;;;;;;5053881;28;20045;-59
2022/08/05 01:33:08;;;;;;;3.63;2.33;;;23.30;57.10;;;;;;5035602;28;20043;-59
2022/08/05 01:35:38;;;;;;;3.13;2.40;;;23.20;57.20;;;;;;5052242;28;20025;-59
2022/08/05 01:38:05;;;;;;;2.65;2.45;;;23.20;57.20;;;;;;5038289;28;20030;-60
2022/08/05 01:40:32;;;;;;;2.22;2.03;;;23.20;57.10;;;;;;5043196;28;20025;-59
2022/08/05 01:43:01;;;;;;;4.40;2.30;;;23.20;57.10;;;;;;5034157;28;20567;-60
2022/08/05 01:45:30;;;;;;;3.08;2.10;;;23.10;57.20;;;;;;5044206;28;20037;-59
2022/08/05 01:47:58;;;;;;;3.38;2.30;;;23.10;57.40;;;;;;5036904;28;20044;-60
2022/08/05 01:50:28;;;;;;;3.00;2.55;;;23.10;57.30;;;;;;5045848;28;20037;-59
2022/08/05 01:52:56;;;;;;;2.60;2.40;;;23.10;57.80;;;;;;5032792;28;20045;-59
2022/08/05 01:55:24;;;;;;;5.80;2.60;;;23.00;57.70;;;;;;5035248;28;20038;-59
2022/08/05 01:57:52;;;;;;;3.45;2.55;;;23.00;57.90;;;;;;5029273;28;20052;-58
2022/08/05 02:00:18;;;;;;;2.53;2.33;;;23.00;58.00;;;;;;5039825;28;20083;-60
2022/08/05 02:03:13;;;;;;;4.00;2.80;;;23.00;58.00;;;;;;5031368;28;20034;-59
2022/08/05 02:05:39;;;;;;;;;;;23.00;58.60;;;;;;5029452;28;20046;-59
2022/08/05 02:08:05;;;;;;;2.30;2.10;;;23.00;57.10;;;;;;5038572;28;19909;-60
2022/08/05 02:10:41;;;;;;;4.40;2.55;;;22.90;57.40;;;;;;5036338;28;20494;-60
2022/08/05 02:13:13;;;;;;;3.42;2.28;;;22.90;58.40;;;;;;5034165;28;20036;-58
2022/08/05 02:15:49;;;;;;;3.10;2.38;;;22.80;58.20;;;;;;5038608;28;20155;-59
2022/08/05 02:18:24;;;;;;;3.03;2.35;;;22.80;58.40;;;;;;5035034;28;20036;-59
2022/08/05 02:20:55;;;;;;;4.40;2.30;;;22.80;58.60;;;;;;5028962;28;20060;-59
2022/08/05 02:23:25;;;;;;;4.10;2.53;;;22.70;58.50;;;;;;5026642;28;20073;-58
2022/08/05 02:25:52;;;;;;;3.30;2.38;;;22.70;58.50;;;;;;5036747;28;20026;-60
2022/08/05 02:28:25;;;;;;;2.55;2.35;;;22.70;58.30;;;;;;5042637;28;20494;-60
2022/08/05 02:30:57;;;;;;;5.03;2.38;;;22.60;58.70;;;;;;5027672;28;20034;-59
2022/08/05 02:33:24;;;;;;;2.40;2.03;;;22.60;58.80;;;;;;5039157;28;20029;-59
2022/08/05 02:35:52;;;;;;;2.72;2.00;;;22.50;58.60;;;;;;5044241;28;20041;-60
2022/08/05 02:38:18;;;;;;;10.13;2.40;;;22.60;58.80;;;;;;5039686;28;20022;-58
2022/08/05 02:40:45;;;;;;;2.90;2.17;;;22.50;58.90;;;;;;5035232;28;20065;-58
2022/08/05 02:43:12;;;;;;;3.65;2.00;;;22.50;59.00;;;;;;5031098;28;20025;-60
2022/08/05 02:45:40;;;;;;;3.15;2.25;;;22.50;59.10;;;;;;5037940;28;20085;-59
2022/08/05 02:48:08;;;;;;;7.78;2.53;;;22.50;59.10;;;;;;5039556;28;20330;-59
2022/08/05 02:50:35;;;;;;;3.80;2.40;;;22.40;59.00;;;;;;5039759;28;20060;-60
2022/08/05 02:53:02;;;;;;;2.70;2.33;;;22.40;59.30;;;;;;5028113;28;20025;-59
2022/08/05 02:55:30;;;;;;;3.97;2.50;;;22.40;59.30;;;;;;5041621;28;20137;-58
2022/08/05 02:57:57;;;;;;;2.80;2.53;;;22.40;59.30;;;;;;5042715;28;20037;-60
2022/08/05 03:00:23;;;;;;;4.65;2.47;;;22.40;59.30;;;;;;5031365;28;21542;-61
2022/08/05 03:02:50;;;;;;;7.15;3.00;;;22.40;59.40;;;;;;5027649;28;20052;-59
2022/08/05 03:05:17;;;;;;;6.47;2.53;;;22.40;59.40;;;;;;5036899;28;20013;-60
2022/08/05 03:07:43;;;;;;;3.63;2.50;;;22.40;59.40;;;;;;5039842;28;20053;-58
2022/08/05 03:10:10;;;;;;;4.07;2.55;;;22.40;59.50;;;;;;5036716;28;20037;-59
2022/08/05 03:12:38;;;;;;;3.47;2.50;;;22.40;59.60;;;;;;5049856;28;20049;-59
2022/08/05 03:15:06;;;;;;;3.78;2.35;;;22.60;59.80;;;;;;5036654;28;20014;-59
2022/08/05 03:17:32;;;;;;;3.55;2.50;;;22.40;60.40;;;;;;5024977;28;20044;-60
2022/08/05 03:19:58;;;;;;;4.63;2.53;;;22.40;59.50;;;;;;5042742;28;20021;-59
2022/08/05 03:22:24;;;;;;;4.85;2.55;;;22.30;59.70;;;;;;5033101;28;20039;-59
2022/08/05 03:24:51;;;;;;;4.93;2.78;;;22.30;59.70;;;;;;5047608;28;20110;-59
2022/08/05 03:27:18;;;;;;;2.38;2.17;;;22.30;59.80;;;;;;5035119;28;20029;-59
2022/08/05 03:29:44;;;;;;;3.30;2.55;;;22.30;59.90;;;;;;5029690;28;20050;-58
2022/08/05 03:32:10;;;;;;;5.40;2.42;;;22.30;59.90;;;;;;5037523;28;20041;-60
2022/08/05 03:34:37;;;;;;;4.57;2.53;;;22.30;59.90;;;;;;5043184;28;20034;-60
2022/08/05 03:37:04;;;;;;;3.50;2.60;;;22.20;60.10;;;;;;5039934;28;20120;-61
2022/08/05 03:39:30;;;;;;;3.58;2.60;;;22.20;60.20;;;;;;5041001;28;20073;-59
2022/08/05 03:41:56;;;;;;;2.65;2.22;;;22.20;60.20;;;;;;5038165;28;20033;-58
2022/08/05 03:44:21;;;;;;;4.88;2.63;;;22.20;60.20;;;;;;5046400;28;20076;-60
2022/08/05 03:46:47;;;;;;;7.47;2.83;;;22.20;60.30;;;;;;5042980;28;20473;-58
2022/08/05 03:49:13;;;;;;;3.33;2.78;;;22.20;60.30;;;;;;5046647;28;20036;-59
2022/08/05 03:51:44;;;;;;;2.63;2.42;;;22.30;60.30;;;;;;5042827;28;20045;-59
2022/08/05 03:54:30;;;;;;;4.70;2.53;;;22.20;60.70;;;;;;5044679;28;20103;-58
2022/08/05 03:56:58;;;;;;;4.85;2.50;;;22.20;61.20;;;;;;5027887;28;20132;-59
2022/08/05 03:59:29;;;;;;;6.20;2.20;;;22.30;60.70;;;;;;5041892;28;20540;-60
2022/08/05 04:01:56;;;;;;;4.22;3.03;;;22.30;60.80;;;;;;5036303;28;20033;-59
2022/08/05 04:04:23;;;;;;;4.00;2.83;;;22.30;60.70;;;;;;5043055;28;20057;-59
2022/08/05 04:06:50;;;;;;;4.90;2.85;;;22.30;60.60;;;;;;5039185;28;20044;-59
2022/08/05 04:09:16;;;;;;;3.13;2.63;;;22.30;60.60;;;;;;5034115;28;20485;-60
2022/08/05 04:11:42;;;;;;;4.35;2.65;;;22.30;60.60;;;;;;5041160;28;20038;-58
2022/08/05 04:14:09;;;;;;;5.75;2.25;;;22.30;60.70;;;;;;5048114;28;20312;-59
2022/08/05 04:16:34;;;;;;;4.97;2.63;;;22.30;60.80;;;;;;5040689;28;20034;-61
2022/08/05 04:19:02;;;;;;;3.67;2.80;;;22.30;60.80;;;;;;5047225;28;20028;-59
2022/08/05 04:21:28;;;;;;;4.47;2.80;;;22.30;60.70;;;;;;5041498;28;20029;-59
2022/08/05 04:23:54;;;;;;;2.97;2.60;;;22.30;60.70;;;;;;5041666;28;20025;-60
2022/08/05 04:26:19;;;;;;;4.70;2.72;;;22.30;60.70;;;;;;5046342;28;20034;-60
2022/08/05 04:28:45;;;;;;;5.45;2.92;;;22.30;60.90;;;;;;5056103;28;20052;-59
2022/08/05 04:31:11;;;;;;;3.15;2.60;;;22.30;61.00;;;;;;5054335;28;20037;-58
2022/08/05 04:33:37;;;;;;;2.38;2.17;;;22.30;61.00;;;;;;5035832;28;20084;-59
2022/08/05 04:36:03;;;;;;;10.15;3.03;;;22.40;60.90;;;;;;5037589;28;20045;-59
2022/08/05 04:38:28;;;;;;;3.08;2.78;;;22.40;61.00;;;;;;5027861;28;20054;-61
2022/08/05 04:40:54;;;;;;;4.00;2.90;;;22.40;61.00;;;;;;5044458;28;20056;-60
2022/08/05 04:43:20;;;;;;;4.43;2.90;;;22.40;60.90;;;;;;5027327;28;20037;-62
2022/08/05 04:45:45;;;;;;;3.63;2.90;;;22.40;61.00;;;;;;5042420;28;20053;-60
2022/08/05 04:48:15;;;;;;;4.80;2.67;;;22.40;61.20;;;;;;5037040;28;20053;-60
2022/08/05 04:50:42;;;;;;;7.82;3.17;;;22.50;61.50;;;;;;5046499;28;20055;-60
2022/08/05 04:53:09;;;;;;;4.93;2.85;;;22.50;61.10;;;;;;5039397;28;20606;-59
2022/08/05 04:55:36;;;;;;;3.80;2.90;;;22.50;61.00;;;;;;5041120;28;20038;-59
2022/08/05 04:58:04;;;;;;;9.27;3.05;;;22.60;61.20;;;;;;5041451;28;20021;-59
2022/08/05 05:00:31;;;;;;;8.27;2.80;;;22.60;61.40;;;;;;5043350;28;20037;-59
2022/08/05 05:02:57;;;;;;;8.35;3.08;;;22.70;61.30;;;;;;5041558;28;20021;-60
2022/08/05 05:05:23;;;;;;;5.28;2.95;;;22.70;61.30;;;;;;5043522;28;20042;-59
2022/08/05 05:07:48;;;;;;;3.00;2.58;;;22.80;61.60;;;;;;5057213;28;20048;-60
2022/08/05 05:10:15;;;;;;;3.20;2.85;;;22.80;61.60;;;;;;5042369;28;20447;-59
2022/08/05 05:12:41;;;;;;;4.07;2.92;;;22.90;61.60;;;;;;5037159;28;20038;-59
2022/08/05 05:15:08;;;;;;;3.55;2.65;;;23.00;61.40;;;;;;5048925;28;20060;-59
2022/08/05 05:17:42;;;;;;;4.22;2.97;;;23.00;61.30;;;;;;5041543;28;20037;-59
2022/08/05 05:20:10;;;;;;;3.08;2.72;;;23.00;61.20;;;;;;5035137;28;20129;-59
2022/08/05 05:22:36;;;;;;;7.28;2.75;;;23.10;60.90;;;;;;5043941;28;20061;-59
2022/08/05 05:25:02;;;;;;;7.45;3.00;;;23.10;60.80;;;;;;5043558;28;20029;-58
2022/08/05 05:27:33;;;;;;;3.67;2.47;;;23.10;60.80;;;;;;5041326;28;20029;-58
2022/08/05 05:29:59;;;;;;;4.10;2.50;;;23.10;60.80;;;;;;5031234;28;20041;-57
2022/08/05 05:32:25;;;;;;;2.80;2.20;;;23.10;60.10;;;;;;5032308;28;20065;-61
2022/08/05 05:34:51;;;;;;;5.05;2.67;;;23.20;59.90;;;;;;5036441;28;20030;-59
2022/08/05 05:37:16;;;;;;;4.13;2.25;;;23.20;59.70;;;;;;5037182;28;20057;-59
2022/08/05 05:39:42;;;;;;;27.92;2.80;;;23.30;59.80;;;;;;5032505;28;20031;-59
2022/08/05 05:42:08;;;;;;;10.73;2.80;;;23.40;60.30;;;;;;5034270;28;20160;-58
2022/08/05 05:44:34;;;;;;;11.85;3.15;;;23.40;60.40;;;;;;5041111;28;20025;-58
2022/08/05 05:47:00;;;;;;;17.98;2.97;;;23.50;60.30;;;;;;5045521;28;20385;-59
2022/08/05 05:49:26;;;;;;;12.75;3.22;;;23.50;60.40;;;;;;5042406;28;20022;-61
2022/08/05 05:51:53;;;;;;;12.25;3.13;;;23.60;60.00;;;;;;5037553;28;20048;-59
2022/08/05 05:54:19;;;;;;;17.00;3.42;;;23.60;60.00;;;;;;5034518;28;20095;-60
2022/08/05 05:56:45;;;;;;;12.98;3.53;;;23.70;59.90;;;;;;5033298;28;20481;-59
2022/08/05 05:59:11;;;;;;;8.27;2.75;;;23.70;59.90;;;;;;5042936;28;20024;-59
2022/08/05 06:01:39;;;;;;;4.22;2.50;;;23.80;59.30;;;;;;5042076;28;20021;-61
2022/08/05 06:04:08;;;;;;;4.07;2.40;;;23.90;59.20;;;;;;5042582;28;20025;-59
2022/08/05 06:06:35;;;;;;;5.28;2.30;;;24.00;58.70;;;;;;5041437;28;20110;-61
2022/08/05 06:09:04;;;;;;;7.70;2.40;;;24.10;58.60;;;;;;5035695;28;20033;-59
2022/08/05 06:11:31;;;;;;;5.28;2.20;;;24.10;58.20;;;;;;5041602;28;20037;-59
2022/08/05 06:13:57;;;;;;;4.38;2.20;;;24.30;58.00;;;;;;5035924;28;20031;-59
2022/08/05 06:16:23;;;;;;;5.22;2.03;;;24.30;57.70;;;;;;5049153;28;20025;-60
2022/08/05 06:18:48;;;;;;;5.72;2.30;;;24.40;57.50;;;;;;5035877;28;20029;-59
2022/08/05 06:21:14;;;;;;;4.20;2.30;;;24.50;57.20;;;;;;5040838;28;20112;-60
2022/08/05 06:23:40;;;;;;;6.53;2.00;;;24.50;57.00;;;;;;5046015;28;20036;-59
2022/08/05 06:26:06;;;;;;;6.78;2.28;;;24.60;56.90;;;;;;5042047;28;20030;-59
2022/08/05 06:28:31;;;;;;;5.07;2.08;;;24.70;56.70;;;;;;5039715;28;20064;-60
2022/08/05 06:30:57;;;;;;;13.52;2.33;;;24.70;56.30;;;;;;5039154;28;20045;-58
2022/08/05 06:33:23;;;;;;;3.05;1.77;;;24.80;56.20;;;;;;5044396;28;20049;-60
2022/08/05 06:35:48;;;;;;;8.38;1.95;;;24.90;55.90;;;;;;5042933;28;20657;-60
2022/08/05 06:38:14;;;;;;;6.38;2.10;;;25.00;55.70;;;;;;5037794;28;20421;-60
2022/08/05 06:40:43;;;;;;;13.20;2.22;;;25.10;55.70;;;;;;5027466;28;20034;-59
2022/08/05 06:43:09;;;;;;;8.45;1.90;;;25.30;55.70;;;;;;5032142;28;20021;-61
2022/08/05 06:45:34;;;;;;;6.32;2.05;;;25.40;55.80;;;;;;5042675;28;20362;-60
2022/08/05 06:48:00;;;;;;;8.65;2.45;;;25.60;55.50;;;;;;5042546;28;20447;-59
2022/08/05 06:50:26;;;;;;;8.00;2.20;;;25.70;55.40;;;;;;5043232;28;20029;-61
2022/08/05 06:52:52;;;;;;;5.13;1.88;;;25.80;55.30;;;;;;5024310;28;20037;-60
2022/08/05 06:55:18;;;;;;;3.03;1.88;;;26.10;55.30;;;;;;5048924;28;20091;-60
2022/08/05 06:57:43;;;;;;;4.00;2.10;;;26.20;54.60;;;;;;5043012;28;20025;-59
2022/08/05 07:00:10;;;;;;;7.13;2.80;;;26.30;54.60;;;;;;5036759;28;20026;-61
2022/08/05 07:02:43;;;;;;;6.35;2.08;;;26.50;54.00;;;;;;5038194;28;20029;-60
2022/08/05 07:05:10;;;;;;;7.68;2.15;;;26.60;53.60;;;;;;5037283;28;20026;-60
2022/08/05 07:07:36;;;;;;;5.43;2.08;;;26.70;53.60;;;;;;5045195;28;20045;-60
2022/08/05 07:10:02;;;;;;;3.55;2.30;;;26.80;53.10;;;;;;5042296;28;20361;-60
2022/08/05 07:17:57;;;;;;;10.57;2.22;;;27.20;52.90;;;;;;5034664;28;20108;-60
2022/08/05 07:20:23;;;;;;;9.05;1.90;;;27.30;52.40;;;;;;5041276;28;20038;-58
2022/08/05 07:22:49;;;;;;;12.48;2.15;;;27.40;52.40;;;;;;5041274;28;20037;-59
2022/08/05 07:25:14;;;;;;;8.02;1.88;;;27.60;51.90;;;;;;5040728;28;20048;-60
2022/08/05 07:27:40;;;;;;;8.40;2.78;;;27.70;51.70;;;;;;5043130;28;20078;-60
2022/08/05 07:30:06;;;;;;;5.80;1.67;;;27.90;51.30;;;;;;5041220;28;20045;-59
2022/08/05 07:32:38;;;;;;;5.22;1.55;;;28.00;50.50;;;;;;5032528;28;20052;-58
2022/08/05 07:35:11;;;;;;;3.75;1.40;;;28.10;49.60;;;;;;5034572;28;20056;-62
2022/08/05 07:37:37;;;;;;;3.08;1.60;;;28.20;48.90;;;;;;5045144;28;20040;-59
2022/08/05 07:40:04;;;;;;;4.32;1.52;;;28.30;48.30;;;;;;5042989;28;20034;-62
2022/08/05 07:42:30;;;;;;;3.10;1.50;;;28.30;47.70;;;;;;5040890;28;20043;-58
2022/08/05 07:44:55;;;;;;;3.55;1.45;;;28.40;48.50;;;;;;5039269;28;20049;-58
2022/08/05 07:47:21;;;;;;;5.30;1.77;;;28.40;47.50;;;;;;5040301;28;20044;-59
2022/08/05 07:49:47;;;;;;;2.10;1.30;;;28.30;47.00;;;;;;5040460;28;20056;-61
2022/08/05 07:52:13;;;;;;;1.92;1.40;;;28.30;47.70;;;;;;5035516;28;20048;-58
2022/08/05 07:54:39;;;;;;;7.57;2.00;;;28.40;47.60;;;;;;5038626;28;20064;-58
2022/08/05 07:57:04;;;;;;;2.35;1.35;;;28.40;47.80;;;;;;5043621;28;20030;-59
2022/08/05 07:59:30;;;;;;;3.35;1.60;;;28.50;47.40;;;;;;5049433;28;20102;-58
2022/08/05 08:01:56;;;;;;;1.35;1.15;;;28.60;47.40;;;;;;5038034;28;20033;-58
2022/08/05 08:04:21;;;;;;;2.08;1.40;;;28.70;47.50;;;;;;5036047;28;20056;-59
2022/08/05 08:06:47;;;;;;;4.15;1.70;;;28.80;47.40;;;;;;5041520;28;20045;-61
2022/08/05 08:09:13;;;;;;;2.42;1.30;;;28.90;47.00;;;;;;5039858;28;20034;-60
2022/08/05 08:11:39;;;;;;;5.55;2.08;;;29.00;46.70;;;;;;5031556;28;20060;-60
2022/08/05 08:14:04;;;;;;;2.83;1.38;;;29.10;46.60;;;;;;5039251;28;20562;-59
2022/08/05 08:16:30;;;;;;;1.90;1.38;;;29.10;46.30;;;;;;5042491;28;20026;-60
2022/08/05 08:18:56;;;;;;;3.60;1.23;;;29.20;46.50;;;;;;5049840;28;20064;-59
2022/08/05 08:21:21;;;;;;;5.60;1.60;;;29.20;46.40;;;;;;5046741;28;20052;-60
2022/08/05 08:23:47;;;;;;;3.38;1.30;;;29.30;46.40;;;;;;5046054;28;20451;-59
2022/08/05 08:26:14;;;;;;;3.75;1.55;;;29.40;46.00;;;;;;5047158;28;20753;-61
2022/08/05 08:28:40;;;;;;;6.30;1.70;;;29.50;46.00;;;;;;5045448;28;20117;-61
2022/08/05 08:31:06;;;;;;;1.90;1.20;;;29.60;45.50;;;;;;5045072;28;20065;-61
2022/08/05 08:33:32;;;;;;;7.50;1.70;;;29.70;45.50;;;;;;5062597;28;20068;-60
2022/08/05 08:35:57;;;;;;;3.25;1.40;;;29.80;45.40;;;;;;5044763;28;20064;-59
2022/08/05 08:38:24;;;;;;;5.25;2.20;;;29.90;45.00;;;;;;5044408;28;20153;-59
2022/08/05 08:40:50;;;;;;;2.28;1.35;;;30.00;44.90;;;;;;5043731;28;20401;-60
2022/08/05 08:43:18;;;;;;;3.40;1.20;;;30.10;44.90;;;;;;5045463;28;20089;-59
2022/08/05 08:45:45;;;;;;;1.92;1.17;;;30.20;44.80;;;;;;5048597;28;20431;-60
2022/08/05 08:48:13;;;;;;;1.65;1.30;;;30.30;44.00;;;;;;5046628;28;20029;-61
2022/08/05 08:50:41;;;;;;;1.55;0.90;;;30.50;43.40;;;;;;5064279;28;20029;-60
2022/08/05 08:53:10;;;;;;;1.77;1.10;;;30.50;42.90;;;;;;5041894;28;20095;-61
2022/08/05 08:55:38;;;;;;;4.10;1.00;;;30.70;42.70;;;;;;5050410;28;20041;-62
2022/08/05 08:58:03;;;;;;;3.53;1.10;;;30.80;41.30;;;;;;5055949;28;20090;-60
2022/08/05 09:00:29;;;;;;;2.90;1.00;;;30.80;41.70;;;;;;5039569;28;20065;-59
2022/08/05 09:02:56;;;;;;;1.00;0.73;;;30.80;42.00;;;;;;5043366;28;20030;-60
2022/08/05 09:05:22;;;;;;;2.33;0.70;;;30.90;41.20;;;;;;5040411;28;20088;-62
2022/08/05 09:07:53;;;;;;;2.65;1.00;;;31.00;41.10;;;;;;5043152;28;20032;-61
2022/08/05 09:10:20;;;;;;;2.10;1.00;;;31.00;40.30;;;;;;5027021;28;20033;-61
2022/08/05 09:12:46;;;;;;;2.45;1.20;;;31.10;40.60;;;;;;5048664;28;20029;-61
2022/08/05 09:15:12;;;;;;;1.17;0.93;;;31.10;39.70;;;;;;5045611;28;20052;-62
2022/08/05 09:17:39;;;;;;;2.75;1.30;;;31.20;39.50;;;;;;5050386;28;20032;-61
2022/08/05 09:20:05;;;;;;;2.78;0.95;;;31.20;38.00;;;;;;5061634;28;20041;-60
2022/08/05 09:23:12;;;;;;;2.30;1.20;;;31.20;38.30;;;;;;5039042;28;20037;-60
2022/08/05 09:25:40;;;;;;;1.20;0.75;;;31.20;38.30;;;;;;5033634;28;20033;-60
2022/08/05 09:28:17;;;;;;;6.55;1.00;;;31.20;38.90;;;;;;5043710;28;20045;-60
2022/08/05 09:30:57;;;;;;;1.52;0.95;;;31.20;38.50;;;;;;5045367;28;20037;-61
2022/08/05 09:33:23;;;;;;;1.58;0.90;;;31.30;38.90;;;;;;5033763;28;20063;-60
2022/08/05 09:36:03;;;;;;;1.83;1.10;;;31.40;39.20;;;;;;5044381;28;20029;-60
2022/08/05 09:38:30;;;;;;;1.58;1.00;;;31.50;38.00;;;;;;5038954;28;20033;-60
2022/08/05 09:41:08;;;;;;;4.25;0.82;;;31.60;38.50;;;;;;5038448;28;20049;-61
2022/08/05 09:43:37;;;;;;;4.65;0.80;;;31.70;37.70;;;;;;5033229;28;20100;-61
2022/08/05 09:46:05;;;;;;;2.85;0.88;;;31.80;38.50;;;;;;5032952;28;20097;-61
2022/08/05 09:48:34;;;;;;;1.70;0.80;;;31.90;37.90;;;;;;5029605;28;20030;-60
2022/08/05 09:51:00;;;;;;;3.65;0.73;;;32.10;37.90;;;;;;5032610;28;20049;-61
2022/08/05 09:53:26;;;;;;;1.70;1.00;;;32.20;38.80;;;;;;5033852;28;20029;-60
2022/08/05 09:55:58;;;;;;;3.40;1.00;;;32.40;37.00;;;;;;5053053;28;20050;-61
2022/08/05 09:58:25;;;;;;;3.15;1.10;;;32.40;37.90;;;;;;5024549;28;20037;-60
2022/08/05 10:00:57;;;;;;;3.13;0.80;;;32.60;37.30;;;;;;5052250;28;20109;-62
2022/08/05 10:03:23;;;;;;;3.47;1.20;;;32.60;35.90;;;;;;5031146;28;20030;-61
2022/08/05 10:06:03;;;;;;;1.50;0.90;;;32.70;37.20;;;;;;5051445;28;20056;-61
2022/08/05 10:08:30;;;;;;;1.95;0.80;;;32.80;35.20;;;;;;5028397;28;20065;-61
2022/08/05 10:10:56;;;;;;;1.13;0.90;;;32.90;36.00;;;;;;5042417;28;20034;-60
2022/08/05 10:13:35;;;;;;;1.23;0.93;;;33.00;35.90;;;;;;5035137;28;20038;-60
2022/08/05 10:16:05;;;;;;;1.58;0.70;;;33.10;35.40;;;;;;5041458;28;20376;-62
2022/08/05 10:18:32;;;;;;;2.30;1.15;;;33.30;35.50;;;;;;5031242;28;20033;-60
2022/08/05 10:21:01;;;;;;;2.28;0.82;;;33.40;35.20;;;;;;5060887;28;20036;-61
2022/08/05 10:23:35;;;;;;;2.78;0.88;;;33.40;34.80;;;;;;5043817;28;20048;-60
2022/08/05 10:26:05;;;;;;;1.52;0.80;;;33.40;34.60;;;;;;5032028;28;20025;-60
2022/08/05 10:28:31;;;;;;;1.10;0.70;;;33.40;34.60;;;;;;5046951;28;20037;-61
2022/08/05 10:30:58;;;;;;;1.63;0.82;;;33.40;34.30;;;;;;5062237;28;20037;-60
2022/08/05 10:33:30;;;;;;;2.00;0.90;;;33.40;34.40;;;;;;5031261;28;20683;-62
2022/08/05 10:35:57;;;;;;;1.10;0.70;;;33.30;34.40;;;;;;5034342;28;20032;-59
2022/08/05 10:38:27;;;;;;;1.45;0.63;;;33.30;35.10;;;;;;5034530;28;20029;-60
2022/08/05 10:41:26;;;;;;;1.27;0.73;;;33.30;34.60;;;;;;5061534;28;20111;-60
2022/08/05 10:43:59;;;;;;;0.98;0.65;;;33.30;34.00;;;;;;5030105;28;20568;-60
2022/08/05 10:46:44;;;;;;;2.40;0.98;;;33.30;34.40;;;;;;5030513;28;20029;-60
2022/08/05 10:49:09;;;;;;;0.77;0.70;;;33.30;35.30;;;;;;5036596;28;20036;-61
2022/08/05 10:51:49;;;;;;;1.80;0.80;;;33.30;35.30;;;;;;5041523;28;20112;-60
2022/08/05 10:54:16;;;;;;;2.22;0.77;;;33.30;34.90;;;;;;5037972;28;20037;-60
2022/08/05 10:56:50;;;;;;;1.00;0.80;;;33.40;35.50;;;;;;5059545;28;20029;-60
2022/08/05 10:59:28;;;;;;;3.50;0.73;;;33.40;35.00;;;;;;5034387;28;20491;-60
2022/08/05 11:02:09;;;;;;;1.73;0.80;;;33.50;35.20;;;;;;5056573;28;20056;-61
2022/08/05 11:04:45;;;;;;;1.52;0.80;;;33.60;35.00;;;;;;5039548;28;20037;-60
2022/08/05 11:07:15;;;;;;;1.95;0.70;;;33.60;34.40;;;;;;5041296;28;20051;-61
2022/08/05 11:09:52;;;;;;;1.63;0.85;;;33.60;34.50;;;;;;5040077;28;20113;-60
2022/08/05 11:12:37;;;;;;;2.72;1.20;;;33.70;33.40;;;;;;5052505;28;20048;-61
2022/08/05 11:15:15;;;;;;;1.80;0.80;;;33.70;35.30;;;;;;5058826;28;20028;-60
2022/08/05 11:18:04;;;;;;;1.40;1.02;;;33.80;33.70;;;;;;5034633;28;20039;-60
2022/08/05 11:20:37;;;;;;;0.63;0.60;;;33.80;33.90;;;;;;5029527;28;20045;-60
2022/08/05 11:23:24;;;;;;;2.50;0.90;;;34.00;33.10;;;;;;5046130;28;20049;-60
2022/08/05 11:26:18;;;;;;;0.90;0.70;;;34.10;34.60;;;;;;5041517;28;20044;-61
2022/08/05 11:28:46;;;;;;;1.23;0.77;;;34.20;33.40;;;;;;5033445;28;20120;-61
2022/08/05 11:31:12;;;;;;;1.00;0.75;;;34.30;33.90;;;;;;5046454;28;20052;-61
2022/08/05 11:33:52;;;;;;;1.77;0.82;;;34.40;32.80;;;;;;5042063;28;20025;-61
2022/08/05 11:36:20;;;;;;;5.30;0.90;;;34.40;32.10;;;;;;5044871;28;20034;-61
2022/08/05 11:38:51;;;;;;;4.93;1.25;;;34.50;32.60;;;;;;5039940;28;20034;-61
2022/08/05 11:41:23;;;;;;;2.10;0.90;;;34.50;31.70;;;;;;5029224;28;20085;-60
2022/08/05 11:43:59;;;;;;;3.17;0.80;;;34.50;30.90;;;;;;5048363;28;20038;-60
2022/08/05 11:46:30;;;;;;;3.65;1.10;;;34.50;31.70;;;;;;5037053;28;20025;-60
2022/08/05 11:48:57;;;;;;;0.98;0.85;;;34.40;30.70;;;;;;5009877;28;20025;-60
2022/08/05 11:51:26;;;;;;;1.70;0.80;;;34.30;31.90;;;;;;5036665;28;20103;-61
2022/08/05 11:53:53;;;;;;;1.38;0.70;;;34.20;32.80;;;;;;5043358;28;20045;-59
2022/08/05 11:56:19;;;;;;;1.15;0.90;;;34.30;33.20;;;;;;5041215;28;20041;-61
2022/08/05 11:58:47;;;;;;;3.47;0.80;;;34.40;33.20;;;;;;5039716;28;20352;-61
2022/08/05 12:01:16;;;;;;;1.35;0.93;;;34.50;32.90;;;;;;5047290;28;20026;-60
2022/08/05 12:03:53;;;;;;;2.53;0.90;;;34.60;32.30;;;;;;5047193;28;20090;-61
2022/08/05 12:06:21;;;;;;;1.65;1.00;;;34.70;33.00;;;;;;5027354;28;20049;-61
2022/08/05 12:08:50;;;;;;;2.88;0.98;;;34.80;33.40;;;;;;5046394;28;20668;-62
2022/08/05 12:11:25;;;;;;;1.80;0.90;;;35.00;33.40;;;;;;5037439;28;20049;-61
2022/08/05 12:13:59;;;;;;;2.22;0.90;;;35.00;32.60;;;;;;5039550;28;20029;-61
2022/08/05 12:16:28;;;;;;;0.60;0.60;;;35.20;32.40;;;;;;5027379;28;20084;-61
2022/08/05 12:18:54;;;;;;;1.45;0.80;;;35.30;32.50;;;;;;5046375;28;20021;-61
2022/08/05 12:21:34;;;;;;;0.90;0.60;;;35.50;32.10;;;;;;5043080;28;20103;-62
2022/08/05 12:24:19;;;;;;;1.00;0.90;;;35.60;31.20;;;;;;5040806;28;20452;-61
2022/08/05 12:26:51;;;;;;;1.35;0.80;;;35.70;32.10;;;;;;5043137;28;20022;-60
2022/08/05 12:29:22;;;;;;;0.73;0.70;;;35.80;31.40;;;;;;5041369;28;20045;-61
2022/08/05 12:31:51;;;;;;;1.17;0.70;;;35.90;31.30;;;;;;5023709;28;20038;-60
2022/08/05 12:34:19;;;;;;;1.73;0.80;;;36.00;31.00;;;;;;5041801;28;20038;-60
2022/08/05 12:36:45;;;;;;;2.83;0.98;;;36.20;30.90;;;;;;5035918;28;20036;-61
2022/08/05 12:39:12;;;;;;;3.20;1.35;;;36.20;31.60;;;;;;5044722;28;20034;-61
2022/08/05 12:41:39;;;;;;;3.35;1.10;;;36.30;29.80;;;;;;5036112;28;20032;-60
2022/08/05 12:44:10;;;;;;;1.45;1.05;;;36.30;29.40;;;;;;5033672;28;20054;-60
2022/08/05 12:46:38;;;;;;;1.45;1.00;;;36.30;28.90;;;;;;5038659;28;20125;-60
2022/08/05 12:49:13;;;;;;;1.20;0.80;;;36.30;29.50;;;;;;5044464;28;20683;-59
2022/08/05 12:51:49;;;;;;;2.00;0.75;;;36.40;29.20;;;;;;5048451;28;20037;-58
2022/08/05 12:54:22;;;;;;;1.35;1.00;;;36.50;30.20;;;;;;5032933;28;20559;-62
2022/08/05 12:56:54;;;;;;;1.98;0.80;;;36.60;30.00;;;;;;5060567;28;20052;-64
2022/08/05 12:59:22;;;;;;;1.08;0.80;;;36.60;30.00;;;;;;5042383;28;20030;-62